Time;durP1;ratioP1;P1;durP2;ratioP2;P2;SDS_P1;SDS_P2;PMS_P1;PMS_P2;Temp;Humidity;BMP_temperature;BMP_pressure;BME280_temperature;BME280_humidity;BME280_pressure;Samples;Min_cycle;Max_cycle;Signal;HPM_P1;HPM_P2
2022/12/07 00:02:33;;;;;;;19.77;12.57;;;;;;;-145.68;100.00;63218.00;10451317;28;20202;-76
2022/12/07 00:07:34;;;;;;;16.70;10.97;;;;;;;-145.68;100.00;63218.00;10451053;28;20702;-75
2022/12/07 00:12:34;;;;;;;19.43;11.43;;;;;;;-145.68;100.00;63218.00;10451196;28;20557;-75
2022/12/07 00:17:35;;;;;;;16.60;10.30;;;;;;;-145.68;100.00;63218.00;10450829;28;20218;-75
2022/12/07 00:22:35;;;;;;;15.27;9.40;;;;;;;-145.68;100.00;63218.00;10450891;28;20207;-76
2022/12/07 00:27:35;;;;;;;15.07;8.93;;;;;;;-145.68;100.00;63218.00;10450720;28;20262;-75
2022/12/07 00:32:36;;;;;;;15.47;8.63;;;;;;;-145.68;100.00;63218.00;10456825;28;20186;-75
2022/12/07 00:37:36;;;;;;;18.73;10.80;;;;;;;-145.68;100.00;63218.00;10458274;28;20297;-75
2022/12/07 00:42:36;;;;;;;15.13;9.50;;;;;;;-145.68;100.00;63218.00;10458643;28;20200;-75
2022/12/07 00:47:37;;;;;;;14.70;9.17;;;;;;;-145.68;100.00;63218.00;10457606;28;20763;-75
2022/12/07 00:52:38;;;;;;;16.20;9.97;;;;;;;-145.68;100.00;63218.00;10457615;28;20563;-74
2022/12/07 00:57:39;;;;;;;14.33;9.27;;;;;;;-145.68;100.00;63218.00;10457868;28;20629;-75
2022/12/07 01:02:39;;;;;;;17.73;10.40;;;;;;;-145.68;100.00;63218.00;10457805;28;20283;-75
2022/12/07 01:07:39;;;;;;;19.07;10.23;;;;;;;-145.68;100.00;63218.00;10457492;28;20186;-73
2022/12/07 01:12:40;;;;;;;16.33;10.27;;;;;;;-145.68;100.00;63218.00;10457510;28;20680;-74
2022/12/07 01:17:40;;;;;;;15.87;10.50;;;;;;;-145.68;100.00;63218.00;10457134;28;20195;-75
2022/12/07 01:22:42;;;;;;;22.33;11.67;;;;;;;-145.68;100.00;63218.00;10456714;28;20199;-74
2022/12/07 01:27:42;;;;;;;16.03;10.43;;;;;;;-145.68;100.00;63218.00;10456621;28;20322;-75
2022/12/07 01:32:43;;;;;;;14.70;10.50;;;;;;;-145.68;100.00;63218.00;10456810;28;20274;-75
2022/12/07 01:37:43;;;;;;;20.77;12.03;;;;;;;-145.68;100.00;63218.00;10455887;28;20707;-74
2022/12/07 01:42:43;;;;;;;17.33;11.03;;;;;;;-145.68;100.00;63218.00;10455669;28;20558;-74
2022/12/07 01:47:51;;;;;;;17.20;10.60;;;;;;;-145.68;100.00;63218.00;10455618;28;20180;-75
2022/12/07 01:52:53;;;;;;;18.30;10.83;;;;;;;-145.68;100.00;63218.00;10455708;28;20185;-75
2022/12/07 01:57:55;;;;;;;16.57;10.43;;;;;;;-145.68;100.00;63218.00;10437585;28;20203;-75
2022/12/07 02:03:01;;;;;;;12.83;8.60;;;;;;;-145.68;100.00;63218.00;10436400;28;20394;-74
2022/12/07 02:08:02;;;;;;;13.40;8.63;;;;;;;-145.68;100.00;63218.00;10437859;28;20611;-74
2022/12/07 02:13:11;;;;;;;13.50;9.10;;;;;;;-145.68;100.00;63218.00;10437472;28;20190;-75
2022/12/07 02:18:25;;;;;;;16.37;11.23;;;;;;;-145.68;100.00;63218.00;10437058;28;20199;-74
2022/12/07 02:23:59;;;;;;;21.57;12.27;;;;;;;-145.68;100.00;63218.00;10420399;28;20227;-75
2022/12/07 02:29:14;;;;;;;21.23;13.30;;;;;;;-145.68;100.00;63218.00;10441403;28;20236;-75
2022/12/07 02:34:24;;;;;;;21.97;13.83;;;;;;;-145.68;100.00;63218.00;10436481;28;20656;-74
2022/12/07 02:39:48;;;;;;;23.20;14.30;;;;;;;-145.68;100.00;63218.00;10436445;28;20215;-74
2022/12/07 02:44:49;;;;;;;22.60;13.23;;;;;;;-145.68;100.00;63218.00;10436401;28;20372;-74
2022/12/07 02:49:50;;;;;;;21.13;13.23;;;;;;;-145.68;100.00;63218.00;10435392;28;20202;-74
2022/12/07 02:54:50;;;;;;;23.27;13.70;;;;;;;-145.68;100.00;63218.00;10435608;28;20188;-75
2022/12/07 03:00:04;;;;;;;20.70;11.87;;;;;;;-145.68;100.00;63218.00;10454550;28;20187;-75
2022/12/07 03:05:12;;;;;;;21.33;12.43;;;;;;;-145.68;100.00;63218.00;10455572;28;20689;-74
2022/12/07 03:10:22;;;;;;;21.13;13.17;;;;;;;-145.68;100.00;63218.00;10455407;28;20188;-75
2022/12/07 03:15:40;;;;;;;20.37;13.50;;;;;;;-145.68;100.00;63218.00;10423501;28;20192;-74
2022/12/07 03:20:41;;;;;;;22.50;12.57;;;;;;;-145.68;100.00;63218.00;10392780;28;20570;-75
2022/12/07 03:25:46;;;;;;;19.93;12.53;;;;;;;-145.68;100.00;63218.00;10392542;28;20231;-74
2022/12/07 03:31:17;;;;;;;20.33;11.77;;;;;;;-145.68;100.00;63218.00;10392279;28;20304;-74
2022/12/07 03:36:30;;;;;;;15.40;10.87;;;;;;;-145.68;100.00;63218.00;10409167;28;20687;-74
2022/12/07 03:41:33;;;;;;;15.37;10.60;;;;;;;-145.68;100.00;63218.00;10392448;28;20287;-74
2022/12/07 03:46:44;;;;;;;18.53;10.03;;;;;;;-145.68;100.00;63218.00;10391339;28;20221;-75
2022/12/07 03:52:24;;;;;;;15.20;10.27;;;;;;;-145.68;100.00;63218.00;10391396;28;20196;-74
2022/12/07 03:57:26;;;;;;;18.03;11.17;;;;;;;-145.68;100.00;63218.00;10389739;28;20234;-75
2022/12/07 04:02:27;;;;;;;16.23;10.83;;;;;;;-145.68;100.00;63218.00;10379666;28;20203;-74
2022/12/07 04:07:28;;;;;;;16.47;10.60;;;;;;;-145.68;100.00;63218.00;10429405;28;20220;-75
2022/12/07 04:12:28;;;;;;;17.80;11.50;;;;;;;-145.68;100.00;63218.00;10428032;28;20192;-76
2022/12/07 04:17:29;;;;;;;16.43;10.67;;;;;;;-145.68;100.00;63218.00;10445655;28;20640;-76
2022/12/07 04:22:29;;;;;;;18.47;11.20;;;;;;;-145.68;100.00;63218.00;10428263;28;20196;-76
2022/12/07 04:27:29;;;;;;;17.20;10.13;;;;;;;-145.68;100.00;63218.00;10445597;28;20227;-76
2022/12/07 04:32:30;;;;;;;15.37;9.73;;;;;;;-145.68;100.00;63218.00;10428334;28;20192;-75
2022/12/07 04:37:30;;;;;;;10.73;6.33;;;;;;;-145.68;100.00;63218.00;10446716;28;20743;-75
2022/12/07 04:42:31;;;;;;;13.53;8.77;;;;;;;-145.68;100.00;63218.00;10428503;28;20741;-76
2022/12/07 04:47:31;;;;;;;11.90;8.33;;;;;;;-145.68;100.00;63218.00;10446124;28;20220;-76
2022/12/07 04:52:31;;;;;;;14.03;8.20;;;;;;;-145.68;100.00;63218.00;10446081;28;20203;-76
2022/12/07 04:57:32;;;;;;;12.10;7.20;;;;;;;-145.68;100.00;63218.00;10445906;28;20203;-76
2022/12/07 05:02:32;;;;;;;11.47;7.63;;;;;;;-145.68;100.00;63218.00;10430031;28;20239;-76
2022/12/07 05:07:33;;;;;;;13.80;7.13;;;;;;;-145.68;100.00;63218.00;10449680;28;20558;-77
2022/12/07 05:12:33;;;;;;;10.23;7.10;;;;;;;-145.68;100.00;63218.00;10431881;28;20246;-76
2022/12/07 05:17:33;;;;;;;11.63;6.90;;;;;;;-145.68;100.00;63218.00;10453798;28;20191;-76
2022/12/07 05:22:34;;;;;;;9.33;6.17;;;;;;;-145.68;100.00;63218.00;10439116;28;20249;-76
2022/12/07 05:27:34;;;;;;;9.33;6.47;;;;;;;-145.68;100.00;63218.00;10456084;28;20234;-76
2022/12/07 05:32:35;;;;;;;8.73;5.37;;;;;;;-145.68;100.00;63218.00;10422062;28;20195;-76
2022/12/07 05:37:35;;;;;;;6.80;3.70;;;;;;;-145.68;100.00;63218.00;10456283;28;20764;-77
2022/12/07 05:42:36;;;;;;;7.77;4.07;;;;;;;-145.68;100.00;63218.00;10456079;28;20556;-77
2022/12/07 05:47:37;;;;;;;8.10;5.57;;;;;;;-145.68;100.00;63218.00;10437680;28;20367;-77
2022/12/07 05:52:38;;;;;;;4.67;4.17;;;;;;;-145.68;100.00;63218.00;10455628;28;20629;-77
2022/12/07 05:57:38;;;;;;;8.93;4.17;;;;;;;-145.68;100.00;63218.00;10455604;28;20187;-77
2022/12/07 06:02:38;;;;;;;9.73;4.30;;;;;;;-145.68;100.00;63218.00;10455189;28;20184;-77
2022/12/07 06:07:39;;;;;;;7.97;5.50;;;;;;;-145.68;100.00;63218.00;10437707;28;20650;-77
2022/12/07 06:12:42;;;;;;;7.77;5.13;;;;;;;-145.68;100.00;63218.00;10436757;28;20222;-77
2022/12/07 06:17:42;;;;;;;6.77;5.07;;;;;;;-145.68;100.00;63218.00;10454935;28;20188;-77
2022/12/07 06:22:43;;;;;;;5.80;4.80;;;;;;;-145.68;100.00;63218.00;10454653;28;20616;-76
2022/12/07 06:27:43;;;;;;;7.17;4.37;;;;;;;-145.68;100.00;63218.00;10453527;28;20227;-76
2022/12/07 06:32:44;;;;;;;6.50;4.80;;;;;;;-145.68;100.00;63218.00;10454682;28;20188;-76
2022/12/07 06:37:44;;;;;;;9.70;5.23;;;;;;;-145.68;100.00;63218.00;10449539;28;20208;-76
2022/12/07 06:42:44;;;;;;;5.93;4.37;;;;;;;-145.68;100.00;63218.00;10417794;28;20942;-76
2022/12/07 06:47:45;;;;;;;9.60;5.00;;;;;;;-145.68;100.00;63218.00;10407364;28;20586;-76
2022/12/07 06:52:45;;;;;;;9.17;6.23;;;;;;;-145.68;100.00;63218.00;10411773;28;20262;-76
2022/12/07 06:57:46;;;;;;;10.03;6.37;;;;;;;-145.68;100.00;63218.00;10412224;28;20199;-75
2022/12/07 07:02:46;;;;;;;10.50;7.83;;;;;;;-145.68;100.00;63218.00;10411374;28;20185;-75
2022/12/07 07:07:47;;;;;;;20.20;8.03;;;;;;;-145.68;100.00;63218.00;10415503;28;20188;-75
2022/12/07 07:12:48;;;;;;;13.90;10.07;;;;;;;-145.68;100.00;63218.00;10424569;28;20196;-75
2022/12/07 07:17:48;;;;;;;6.50;5.37;;;;;;;-145.68;100.00;63218.00;10439215;28;20188;-75
2022/12/07 07:22:49;;;;;;;10.23;6.50;;;;;;;-145.68;100.00;63218.00;10452141;28;20198;-75
2022/12/07 07:27:49;;;;;;;14.90;9.40;;;;;;;-145.68;100.00;63218.00;10451534;28;20793;-75
2022/12/07 07:32:50;;;;;;;7.93;5.63;;;;;;;-145.68;100.00;63218.00;10434447;28;20781;-75
2022/12/07 07:37:50;;;;;;;8.73;5.90;;;;;;;-145.68;100.00;63218.00;10445610;28;20922;-74
2022/12/07 07:42:52;;;;;;;8.90;6.37;;;;;;;-145.68;100.00;63218.00;10450286;28;20188;-74
2022/12/07 07:47:52;;;;;;;6.97;6.07;;;;;;;-145.68;100.00;63218.00;10449323;28;20647;-74
2022/12/07 07:52:53;;;;;;;15.27;8.30;;;;;;;-145.68;100.00;63218.00;10445069;28;20188;-74
2022/12/07 07:57:53;;;;;;;12.37;7.30;;;;;;;-145.68;100.00;63218.00;10408952;28;20505;-75
2022/12/07 08:02:54;;;;;;;10.37;6.70;;;;;;;-145.68;100.00;63218.00;10407737;28;20215;-74
2022/12/07 08:07:54;;;;;;;9.80;7.03;;;;;;;-145.68;100.00;63218.00;10407722;28;20250;-74
2022/12/07 08:18:15;;;;;;;16.00;12.47;;;;;;;-145.68;100.00;63218.00;10423625;28;20651;-75
2022/12/07 08:23:15;;;;;;;17.90;12.57;;;;;;;-145.68;100.00;63218.00;10430512;28;20233;-75
2022/12/07 08:28:15;;;;;;;19.13;10.07;;;;;;;-145.68;100.00;63218.00;10430104;28;20602;-76
2022/12/07 08:33:16;;;;;;;16.87;10.77;;;;;;;-145.68;100.00;63218.00;10448827;28;20201;-76
2022/12/07 08:38:16;;;;;;;13.67;9.20;;;;;;;-145.68;100.00;63218.00;10447357;28;20269;-76
2022/12/07 08:43:16;;;;;;;15.27;9.40;;;;;;;-145.68;100.00;63218.00;10447831;28;20900;-76
2022/12/07 08:48:21;;;;;;;11.13;8.40;;;;;;;-145.68;100.00;63218.00;10430006;28;20192;-76
2022/12/07 08:53:22;;;;;;;14.03;9.07;;;;;;;-145.68;100.00;63218.00;10436770;28;20180;-75
2022/12/07 08:58:22;;;;;;;12.17;7.40;;;;;;;-145.68;100.00;63218.00;10449486;28;20558;-75
2022/12/07 09:03:23;;;;;;;12.17;8.47;;;;;;;-145.68;100.00;63218.00;10441457;28;20226;-74
2022/12/07 09:08:26;;;;;;;8.80;6.57;;;;;;;-145.68;100.00;63218.00;10440858;28;20676;-74
2022/12/07 09:13:27;;;;;;;15.60;11.70;;;;;;;-145.68;100.00;63218.00;10436895;28;20184;-74
2022/12/07 09:18:27;;;;;;;13.20;7.80;;;;;;;-145.68;100.00;63218.00;10453555;28;20191;-76
2022/12/07 09:23:28;;;;;;;14.13;7.70;;;;;;;-145.68;100.00;63218.00;10455366;28;20226;-76
2022/12/07 09:28:28;;;;;;;9.83;6.73;;;;;;;-145.68;100.00;63218.00;10455230;28;20656;-76
2022/12/07 09:33:28;;;;;;;17.77;11.73;;;;;;;-145.68;100.00;63218.00;10419043;28;20578;-75
2022/12/07 09:38:29;;;;;;;13.53;7.73;;;;;;;-145.68;100.00;63218.00;10413115;28;20216;-75
2022/12/07 09:43:29;;;;;;;11.00;6.67;;;;;;;-145.68;100.00;63218.00;10447882;28;20689;-75
2022/12/07 09:48:33;;;;;;;9.20;6.23;;;;;;;-145.68;100.00;63218.00;10453819;28;20214;-75
2022/12/07 09:53:34;;;;;;;9.30;5.93;;;;;;;-145.68;100.00;63218.00;10452214;28;20191;-76
2022/12/07 09:58:35;;;;;;;8.63;5.27;;;;;;;-145.68;100.00;63218.00;10447470;28;20209;-75
2022/12/07 10:03:43;;;;;;;9.13;5.63;;;;;;;-145.68;100.00;63218.00;10412005;28;20219;-75
2022/12/07 10:08:44;;;;;;;10.13;5.73;;;;;;;-145.68;100.00;63218.00;10407677;28;20296;-76
2022/12/07 10:13:50;;;;;;;10.43;6.40;;;;;;;-145.68;100.00;63218.00;10412346;28;20179;-75
2022/12/07 10:18:51;;;;;;;11.13;6.30;;;;;;;-145.68;100.00;63218.00;10406977;28;20214;-76
2022/12/07 10:24:03;;;;;;;9.03;5.50;;;;;;;-145.68;100.00;63218.00;10452110;28;20617;-77
2022/12/07 10:29:29;;;;;;;9.90;5.87;;;;;;;-145.68;100.00;63218.00;10453072;28;20223;-76
2022/12/07 10:34:32;;;;;;;10.37;5.37;;;;;;;-145.68;100.00;63218.00;10434844;28;20191;-77
2022/12/07 10:39:41;;;;;;;7.43;5.10;;;;;;;-145.68;100.00;63218.00;10452951;28;20289;-77
2022/12/07 10:44:42;;;;;;;8.97;5.43;;;;;;;-145.68;100.00;63218.00;10451762;28;20208;-75
2022/12/07 10:49:52;;;;;;;6.93;4.63;;;;;;;-145.68;100.00;63218.00;10451255;28;20840;-77
2022/12/07 10:55:23;;;;;;;8.47;5.37;;;;;;;-145.68;100.00;63218.00;10443468;28;20223;-77
2022/12/07 11:00:24;;;;;;;14.87;7.33;;;;;;;-145.68;100.00;63218.00;10418727;28;20921;-76
2022/12/07 11:05:56;;;;;;;10.20;5.60;;;;;;;-145.68;100.00;63218.00;10391300;28;20228;-74
2022/12/07 11:11:26;;;;;;;14.50;8.17;;;;;;;-145.68;100.00;63218.00;10372722;28;20208;-75
2022/12/07 11:16:30;;;;;;;11.23;5.20;;;;;;;-145.68;100.00;63218.00;10391145;28;20267;-75
2022/12/07 11:21:37;;;;;;;11.47;6.37;;;;;;;-145.68;100.00;63218.00;10409992;28;20286;-76
2022/12/07 11:26:52;;;;;;;12.93;7.63;;;;;;;-145.68;100.00;63218.00;10424376;28;20231;-76
2022/12/07 11:32:04;;;;;;;11.07;6.80;;;;;;;-145.68;100.00;63218.00;10450845;28;20773;-76
2022/12/07 11:37:12;;;;;;;10.97;6.07;;;;;;;-145.68;100.00;63218.00;10450100;28;21050;-75
2022/12/07 11:42:16;;;;;;;12.73;7.97;;;;;;;-145.68;100.00;63218.00;10432097;28;20217;-75
2022/12/07 11:47:21;;;;;;;14.30;7.80;;;;;;;-145.68;100.00;63218.00;10432963;28;20223;-75
2022/12/07 11:52:32;;;;;;;12.33;6.60;;;;;;;-145.68;100.00;63218.00;10450158;28;20188;-75
2022/12/07 11:57:38;;;;;;;14.00;7.73;;;;;;;-145.68;100.00;63218.00;10399050;28;20215;-76
2022/12/07 12:03:01;;;;;;;9.80;5.67;;;;;;;-145.68;100.00;63218.00;10374119;28;20191;-76
2022/12/07 12:08:04;;;;;;;10.67;4.77;;;;;;;-145.68;100.00;63218.00;10390208;28;20203;-77
2022/12/07 12:13:16;;;;;;;7.93;4.77;;;;;;;-145.68;100.00;63218.00;10374603;28;20193;-74
2022/12/07 12:18:25;;;;;;;10.00;5.13;;;;;;;-145.68;100.00;63218.00;10390665;28;20657;-75
2022/12/07 12:23:46;;;;;;;7.70;4.70;;;;;;;-145.68;100.00;63218.00;10407068;28;20583;-75
2022/12/07 12:29:04;;;;;;;8.77;5.23;;;;;;;-145.68;100.00;63218.00;10438514;28;20198;-76
2022/12/07 12:34:37;;;;;;;9.70;4.30;;;;;;;-145.68;100.00;63218.00;10432226;28;20659;-74
2022/12/07 12:39:38;;;;;;;9.47;5.27;;;;;;;-145.68;100.00;63218.00;10410793;28;20213;-74
2022/12/07 12:44:40;;;;;;;11.37;5.60;;;;;;;-145.68;100.00;63218.00;10418236;28;20211;-75
2022/12/07 12:49:43;;;;;;;10.07;5.30;;;;;;;-145.68;100.00;63218.00;10397775;28;20759;-76
2022/12/07 12:55:13;;;;;;;8.80;5.23;;;;;;;-145.68;100.00;63218.00;10417081;28;20191;-75
2022/12/07 13:00:21;;;;;;;10.10;5.63;;;;;;;-145.68;100.00;63218.00;10463060;28;20203;-76
2022/12/07 13:05:24;;;;;;;14.27;6.60;;;;;;;-145.68;100.00;63218.00;10457407;28;20690;-76
2022/12/07 13:10:30;;;;;;;14.13;5.90;;;;;;;-145.68;100.00;63218.00;10456454;28;20249;-76
2022/12/07 13:15:34;;;;;;;9.93;6.10;;;;;;;-145.68;100.00;63218.00;10456236;28;20203;-76
2022/12/07 13:20:48;;;;;;;16.63;9.53;;;;;;;-145.68;100.00;63218.00;10453974;28;20575;-76
2022/12/07 13:25:56;;;;;;;10.77;5.53;;;;;;;-145.68;100.00;63218.00;10442602;28;20760;-76
2022/12/07 13:31:12;;;;;;;11.57;6.80;;;;;;;-145.68;100.00;63218.00;10401133;28;20196;-76
2022/12/07 13:36:25;;;;;;;9.57;5.27;;;;;;;-145.68;100.00;63218.00;10410551;28;20180;-76
2022/12/07 13:41:27;;;;;;;33.20;16.27;;;;;;;-145.68;100.00;63218.00;10420628;28;20223;-75
2022/12/07 13:46:50;;;;;;;10.53;6.50;;;;;;;-145.68;100.00;63218.00;10412959;28;20220;-77
2022/12/07 13:51:51;;;;;;;11.00;5.40;;;;;;;-145.68;100.00;63218.00;10406718;28;20238;-76
2022/12/07 13:56:52;;;;;;;11.50;5.57;;;;;;;-145.68;100.00;63218.00;10416894;28;20192;-75
2022/12/07 14:01:53;;;;;;;9.67;5.50;;;;;;;-145.68;100.00;63218.00;10420476;28;20195;-74
2022/12/07 14:06:54;;;;;;;7.60;5.13;;;;;;;-145.68;100.00;63218.00;10451717;28;20240;-74
2022/12/07 14:11:55;;;;;;;9.70;5.03;;;;;;;-145.68;100.00;63218.00;10452157;28;20196;-75
2022/12/07 14:16:58;;;;;;;8.10;4.73;;;;;;;-145.68;100.00;63218.00;10434796;28;20231;-78
2022/12/07 14:22:17;;;;;;;8.17;4.33;;;;;;;-145.68;100.00;63218.00;10442047;28;20208;-77
2022/12/07 14:27:25;;;;;;;5.63;3.87;;;;;;;-145.68;100.00;63218.00;10354810;28;20244;-76
2022/12/07 14:32:28;;;;;;;7.73;4.83;;;;;;;-145.68;100.00;63218.00;10382459;28;20192;-76
2022/12/07 14:37:30;;;;;;;8.00;5.07;;;;;;;-145.68;100.00;63218.00;10386871;28;20782;-77
2022/12/07 14:42:31;;;;;;;14.57;6.40;;;;;;;-145.68;100.00;63218.00;10388379;28;20205;-77
2022/12/07 14:53:54;;;;;;;21.07;12.67;;;;;;;-145.68;100.00;63218.00;10294447;28;20194;-77
2022/12/07 14:58:55;;;;;;;18.77;10.93;;;;;;;-145.68;100.00;63218.00;10355125;28;20654;-74
2022/12/07 15:03:55;;;;;;;6.87;5.00;;;;;;;-145.68;100.00;63218.00;10385827;28;20209;-76
2022/12/07 15:08:55;;;;;;;21.73;10.03;;;;;;;-145.68;100.00;63218.00;10370361;28;20200;-76
2022/12/07 15:14:08;;;;;;;17.50;6.43;;;;;;;-145.68;100.00;63218.00;10369182;28;20227;-76
2022/12/07 15:19:24;;;;;;;26.53;11.17;;;;;;;-145.68;100.00;63218.00;10389245;28;20664;-76
2022/12/07 15:24:24;;;;;;;12.23;7.63;;;;;;;-145.68;100.00;63218.00;10417361;28;20714;-77
2022/12/07 15:29:26;;;;;;;11.07;5.77;;;;;;;-145.68;100.00;63218.00;10451251;28;20265;-76
2022/12/07 15:34:28;;;;;;;11.90;6.27;;;;;;;-145.68;100.00;63218.00;10448056;28;20202;-76
2022/12/07 15:39:28;;;;;;;9.07;4.80;;;;;;;-145.68;100.00;63218.00;10448237;28;20216;-76
2022/12/07 15:49:48;;;;;;;7.97;4.27;;;;;;;-145.68;100.00;63218.00;10431704;28;20183;-77
2022/12/07 15:54:52;;;;;;;6.67;4.30;;;;;;;-145.68;100.00;63218.00;10418277;28;20597;-76
2022/12/07 15:59:53;;;;;;;12.37;6.20;;;;;;;-145.68;100.00;63218.00;10389737;28;20199;-77
2022/12/07 16:04:53;;;;;;;16.90;8.47;;;;;;;-145.68;100.00;63218.00;10440245;28;20219;-76
2022/12/07 16:09:54;;;;;;;31.87;17.13;;;;;;;-145.68;100.00;63218.00;10445795;28;20187;-76
2022/12/07 16:14:54;;;;;;;14.23;7.83;;;;;;;-145.68;100.00;63218.00;10424580;28;20547;-76
2022/12/07 16:19:54;;;;;;;14.30;6.27;;;;;;;-145.68;100.00;63218.00;10441771;28;20191;-77
2022/12/07 16:24:55;;;;;;;8.97;4.63;;;;;;;-145.68;100.00;63218.00;10442394;28;20239;-76
2022/12/07 16:29:55;;;;;;;4.77;4.10;;;;;;;-145.68;100.00;63218.00;10441728;28;20203;-76
2022/12/07 16:34:56;;;;;;;8.07;4.67;;;;;;;-145.68;100.00;63218.00;10428279;28;20192;-76
2022/12/07 16:39:56;;;;;;;5.50;4.33;;;;;;;-145.68;100.00;63218.00;10400845;28;20257;-76
2022/12/07 16:44:56;;;;;;;9.97;6.40;;;;;;;-145.68;100.00;63218.00;10422482;28;20219;-77
2022/12/07 16:49:57;;;;;;;6.40;4.20;;;;;;;-145.68;100.00;63218.00;10442365;28;20184;-77
2022/12/07 16:54:57;;;;;;;7.90;4.43;;;;;;;-145.68;100.00;63218.00;10441889;28;20242;-77
2022/12/07 16:59:58;;;;;;;5.33;3.57;;;;;;;-145.68;100.00;63218.00;10441628;28;20663;-77
2022/12/07 17:04:58;;;;;;;4.17;3.23;;;;;;;-145.68;100.00;63218.00;10442242;28;20216;-77
2022/12/07 17:09:59;;;;;;;8.07;5.07;;;;;;;-145.68;100.00;63218.00;10436087;28;20190;-77
2022/12/07 17:15:17;;;;;;;9.40;4.03;;;;;;;-145.68;100.00;63218.00;10412854;28;20228;-77
2022/12/07 17:20:18;;;;;;;7.30;4.47;;;;;;;-145.68;100.00;63218.00;10443777;28;20659;-76
2022/12/07 17:25:19;;;;;;;6.23;4.00;;;;;;;-145.68;100.00;63218.00;10431864;28;20236;-77
2022/12/07 17:30:20;;;;;;;10.20;3.90;;;;;;;-145.68;100.00;63218.00;10408745;28;20190;-76
2022/12/07 17:35:20;;;;;;;8.20;4.57;;;;;;;-145.68;100.00;63218.00;10413851;28;20275;-77
2022/12/07 17:40:20;;;;;;;7.80;3.90;;;;;;;-145.68;100.00;63218.00;10382822;28;20737;-76
2022/12/07 17:45:21;;;;;;;5.63;3.80;;;;;;;-145.68;100.00;63218.00;10377045;28;20213;-76
2022/12/07 17:53:09;;;;;;;7.47;3.10;;;;;;;-145.68;100.00;63218.00;10388834;28;20192;-77
2022/12/07 17:55:41;;;;;;;8.27;3.93;;;;;;;-145.68;100.00;63218.00;10412675;28;20664;-77
2022/12/07 18:00:42;;;;;;;15.23;7.30;;;;;;;-145.68;100.00;63218.00;10412433;28;20188;-77
2022/12/07 18:05:44;;;;;;;7.83;3.70;;;;;;;-145.68;100.00;63218.00;10403538;28;20212;-77
2022/12/07 18:10:44;;;;;;;11.27;4.83;;;;;;;-145.68;100.00;63218.00;10384404;28;20197;-77
2022/12/07 18:15:45;;;;;;;12.37;6.80;;;;;;;-145.68;100.00;63218.00;10370826;28;20197;-76
2022/12/07 18:20:45;;;;;;;7.60;3.90;;;;;;;-145.68;100.00;63218.00;10370820;28;20184;-76
2022/12/07 18:25:48;;;;;;;8.13;3.73;;;;;;;-145.68;100.00;63218.00;10390252;28;20293;-76
2022/12/07 18:30:51;;;;;;;16.90;8.13;;;;;;;-145.68;100.00;63218.00;10410838;28;20653;-76
2022/12/07 18:35:51;;;;;;;8.53;3.83;;;;;;;-145.68;100.00;63218.00;10410769;28;20216;-77
2022/12/07 18:40:51;;;;;;;6.47;3.90;;;;;;;-145.68;100.00;63218.00;10445997;28;20318;-77
2022/12/07 18:45:52;;;;;;;5.20;3.73;;;;;;;-145.68;100.00;63218.00;10450065;28;20219;-77
2022/12/07 18:51:03;;;;;;;8.23;4.40;;;;;;;-145.68;100.00;63218.00;10450289;28;20187;-76
2022/12/07 18:56:06;;;;;;;5.97;3.70;;;;;;;-145.68;100.00;63218.00;10450660;28;20739;-76
2022/12/07 19:01:06;;;;;;;5.80;3.70;;;;;;;-145.68;100.00;63218.00;10449562;28;20281;-76
2022/12/07 19:06:07;;;;;;;8.40;4.90;;;;;;;-145.68;100.00;63218.00;10450652;28;20225;-76
2022/12/07 19:16:35;;;;;;;7.90;4.37;;;;;;;-145.68;100.00;63218.00;10449806;28;20191;-77
2022/12/07 19:21:36;;;;;;;8.83;3.53;;;;;;;-145.68;100.00;63218.00;10449722;28;20187;-77
2022/12/07 19:26:36;;;;;;;9.43;5.50;;;;;;;-145.68;100.00;63218.00;10431505;28;20267;-77
2022/12/07 19:31:36;;;;;;;9.30;3.77;;;;;;;-145.68;100.00;63218.00;10430468;28;20195;-77
2022/12/07 19:36:37;;;;;;;11.23;5.53;;;;;;;-145.68;100.00;63218.00;10431194;28;20676;-77
2022/12/07 19:41:38;;;;;;;4.63;3.60;;;;;;;-145.68;100.00;63218.00;10448119;28;20190;-77
2022/12/07 19:46:39;;;;;;;6.93;3.67;;;;;;;-145.68;100.00;63218.00;10449020;28;20245;-77
2022/12/07 19:51:39;;;;;;;5.87;3.70;;;;;;;-145.68;100.00;63218.00;10448462;28;20731;-77
2022/12/07 19:56:41;;;;;;;6.83;3.50;;;;;;;-145.68;100.00;63218.00;10447463;28;20201;-78
2022/12/07 20:01:42;;;;;;;13.83;3.50;;;;;;;-145.68;100.00;63218.00;10431135;28;20192;-78
2022/12/07 20:06:43;;;;;;;8.17;3.77;;;;;;;-145.68;100.00;63218.00;10429996;28;20230;-77
2022/12/07 20:17:03;;;;;;;9.20;3.80;;;;;;;-145.68;100.00;63218.00;10447636;28;20187;-78
2022/12/07 20:22:04;;;;;;;9.90;3.70;;;;;;;-145.68;100.00;63218.00;10447910;28;20195;-78
2022/12/07 20:27:05;;;;;;;5.43;4.07;;;;;;;-145.68;100.00;63218.00;10447015;28;20249;-78
2022/12/07 20:32:05;;;;;;;10.40;4.30;;;;;;;-145.68;100.00;63218.00;10447669;28;20320;-78
2022/12/07 20:37:05;;;;;;;7.00;4.30;;;;;;;-145.68;100.00;63218.00;10429419;28;20226;-78
2022/12/07 20:47:25;;;;;;;5.40;4.20;;;;;;;-145.68;100.00;63218.00;10424124;28;20216;-79
2022/12/07 20:52:25;;;;;;;7.87;4.80;;;;;;;-145.68;100.00;63218.00;10413529;28;20230;-78
2022/12/07 20:57:26;;;;;;;10.93;4.20;;;;;;;-145.68;100.00;63218.00;10431527;28;20177;-78
2022/12/07 21:02:26;;;;;;;11.57;5.60;;;;;;;-145.68;100.00;63218.00;10430301;28;20186;-79
2022/12/07 21:07:27;;;;;;;9.97;4.73;;;;;;;-145.68;100.00;63218.00;10430647;28;20765;-78
2022/12/07 21:12:28;;;;;;;10.97;5.10;;;;;;;-145.68;100.00;63218.00;10433142;28;20559;-78
2022/12/07 21:17:28;;;;;;;6.33;4.70;;;;;;;-145.68;100.00;63218.00;10453660;28;20206;-79
2022/12/07 21:22:28;;;;;;;12.33;4.80;;;;;;;-145.68;100.00;63218.00;10456503;28;20731;-77
2022/12/07 21:27:29;;;;;;;10.63;4.30;;;;;;;-145.68;100.00;63218.00;10456226;28;20650;-78
2022/12/07 21:32:29;;;;;;;8.87;4.23;;;;;;;-145.68;100.00;63218.00;10457032;28;20188;-78
2022/12/07 21:37:29;;;;;;;6.63;3.50;;;;;;;-145.68;100.00;63218.00;10457242;28;20208;-78
2022/12/07 21:42:30;;;;;;;6.93;4.10;;;;;;;-145.68;100.00;63218.00;10456602;28;20196;-78
2022/12/07 21:47:31;;;;;;;8.37;4.93;;;;;;;-145.68;100.00;63218.00;10456677;28;20305;-78
2022/12/07 21:52:31;;;;;;;11.17;4.13;;;;;;;-145.68;100.00;63218.00;10456826;28;20194;-78
2022/12/07 21:57:32;;;;;;;7.80;4.07;;;;;;;-145.68;100.00;63218.00;10455999;28;20191;-77
2022/12/07 22:02:32;;;;;;;7.03;3.73;;;;;;;-145.68;100.00;63218.00;10439072;28;20202;-77
2022/12/07 22:07:34;;;;;;;14.40;3.93;;;;;;;-145.68;100.00;63218.00;10456064;28;20222;-78
2022/12/07 22:12:34;;;;;;;11.23;4.50;;;;;;;-145.68;100.00;63218.00;10438537;28;20198;-78
2022/12/07 22:17:34;;;;;;;9.07;4.70;;;;;;;-145.68;100.00;63218.00;10456166;28;20188;-78
2022/12/07 22:22:35;;;;;;;8.20;4.90;;;;;;;-145.68;100.00;63218.00;10456095;28;20195;-79
2022/12/07 22:27:35;;;;;;;10.20;4.67;;;;;;;-145.68;100.00;63218.00;10455425;28;20242;-79
2022/12/07 22:32:37;;;;;;;10.37;4.90;;;;;;;-145.68;100.00;63218.00;10447769;28;20187;-80
2022/12/07 22:37:37;;;;;;;10.20;4.43;;;;;;;-145.68;100.00;63218.00;10438514;28;20226;-80
2022/12/07 22:42:37;;;;;;;8.27;4.50;;;;;;;-145.68;100.00;63218.00;10456761;28;20191;-80
2022/12/07 22:47:39;;;;;;;9.27;5.07;;;;;;;-145.68;100.00;63218.00;10458855;28;20211;-80
2022/12/07 22:52:40;;;;;;;9.27;4.80;;;;;;;-145.68;100.00;63218.00;10456066;28;20199;-80
2022/12/07 22:57:40;;;;;;;8.40;6.13;;;;;;;-145.68;100.00;63218.00;10454434;28;20187;-80
2022/12/07 23:02:40;;;;;;;11.00;5.90;;;;;;;-145.68;100.00;63218.00;10453732;28;20246;-80